sensor_id;sensor_type;location;lat;lon;timestamp;pressure;altitude;pressure_sealevel;temperature;humidity
44926;BME280;30662;51.210;7.656;2023-04-01T00:00:55;150492.44;;;6.75;100.00
44926;BME280;30662;51.210;7.656;2023-04-01T00:03:22;150474.75;;;6.68;100.00
44926;BME280;30662;51.210;7.656;2023-04-01T00:05:49;150454.56;;;6.60;100.00
44926;BME280;30662;51.210;7.656;2023-04-01T00:08:15;150455.84;;;6.60;100.00
44926;BME280;30662;51.210;7.656;2023-04-01T00:10:41;150460.88;;;6.62;100.00
44926;BME280;30662;51.210;7.656;2023-04-01T00:13:07;150468.41;;;6.66;100.00
44926;BME280;30662;51.210;7.656;2023-04-01T00:15:33;150479.78;;;6.70;100.00
44926;BME280;30662;51.210;7.656;2023-04-01T00:17:59;150505.03;;;6.80;100.00
44926;BME280;30662;51.210;7.656;2023-04-01T00:20:27;150483.56;;;6.72;100.00
44926;BME280;30662;51.210;7.656;2023-04-01T00:22:53;150482.31;;;6.71;100.00
44926;BME280;30662;51.210;7.656;2023-04-01T00:25:19;150492.44;;;6.75;100.00
44926;BME280;30662;51.210;7.656;2023-04-01T00:27:45;150469.69;;;6.66;100.00
44926;BME280;30662;51.210;7.656;2023-04-01T00:30:11;150462.13;;;6.63;100.00
44926;BME280;30662;51.210;7.656;2023-04-01T00:32:37;150459.59;;;6.62;100.00
44926;BME280;30662;51.210;7.656;2023-04-01T00:35:03;150453.31;;;6.59;100.00
44926;BME280;30662;51.210;7.656;2023-04-01T00:37:30;150462.13;;;6.63;100.00
44926;BME280;30662;51.210;7.656;2023-04-01T00:39:56;150458.34;;;6.61;100.00
44926;BME280;30662;51.210;7.656;2023-04-01T00:42:22;150467.16;;;6.65;100.00
44926;BME280;30662;51.210;7.656;2023-04-01T00:44:53;150455.84;;;6.60;100.00
44926;BME280;30662;51.210;7.656;2023-04-01T00:47:20;150454.56;;;6.60;100.00
44926;BME280;30662;51.210;7.656;2023-04-01T00:49:50;150467.16;;;6.65;100.00
44926;BME280;30662;51.210;7.656;2023-04-01T00:52:19;150429.31;;;6.50;100.00
44926;BME280;30662;51.210;7.656;2023-04-01T00:54:47;150435.63;;;6.52;100.00
44926;BME280;30662;51.210;7.656;2023-04-01T00:57:22;150434.38;;;6.52;100.00
44926;BME280;30662;51.210;7.656;2023-04-01T00:59:50;150431.81;;;6.51;100.00
44926;BME280;30662;51.210;7.656;2023-04-01T01:02:19;150439.41;;;6.54;100.00
44926;BME280;30662;51.210;7.656;2023-04-01T01:04:45;150428.03;;;6.49;100.00
44926;BME280;30662;51.210;7.656;2023-04-01T01:10:28;150425.53;;;6.48;100.00
44926;BME280;30662;51.210;7.656;2023-04-01T01:15:46;150424.25;;;6.48;100.00
44926;BME280;30662;51.210;7.656;2023-04-01T01:26:55;150436.91;;;6.53;100.00
44926;BME280;30662;51.210;7.656;2023-04-01T01:32:15;150411.63;;;6.43;100.00
44926;BME280;30662;51.210;7.656;2023-04-01T01:34:54;150431.81;;;6.51;100.00
44926;BME280;30662;51.210;7.656;2023-04-01T01:37:25;150420.50;;;6.46;100.00
44926;BME280;30662;51.210;7.656;2023-04-01T01:39:56;150426.78;;;6.49;100.00
44926;BME280;30662;51.210;7.656;2023-04-01T01:42:26;150438.16;;;6.53;100.00
44926;BME280;30662;51.210;7.656;2023-04-01T01:44:55;150419.22;;;6.46;100.00
44926;BME280;30662;51.210;7.656;2023-04-01T01:47:23;150412.88;;;6.43;100.00
44926;BME280;30662;51.210;7.656;2023-04-01T01:49:51;150425.53;;;6.48;100.00
44926;BME280;30662;51.210;7.656;2023-04-01T01:52:18;150448.22;;;6.57;100.00
44926;BME280;30662;51.210;7.656;2023-04-01T01:54:53;150443.19;;;6.55;100.00
44926;BME280;30662;51.210;7.656;2023-04-01T01:57:23;150443.19;;;6.55;100.00
44926;BME280;30662;51.210;7.656;2023-04-01T01:59:52;150436.91;;;6.53;100.00
44926;BME280;30662;51.210;7.656;2023-04-01T02:02:22;150445.72;;;6.56;100.00
44926;BME280;30662;51.210;7.656;2023-04-01T02:04:50;150425.53;;;6.48;100.00
44926;BME280;30662;51.210;7.656;2023-04-01T02:07:32;150445.72;;;6.56;100.00
44926;BME280;30662;51.210;7.656;2023-04-01T02:10:03;150443.19;;;6.55;100.00
44926;BME280;30662;51.210;7.656;2023-04-01T02:12:29;150450.75;;;6.58;100.00
44926;BME280;30662;51.210;7.656;2023-04-01T02:15:08;150425.53;;;6.48;100.00
44926;BME280;30662;51.210;7.656;2023-04-01T02:17:39;150431.81;;;6.51;100.00
44926;BME280;30662;51.210;7.656;2023-04-01T02:20:09;150435.63;;;6.52;100.00
44926;BME280;30662;51.210;7.656;2023-04-01T02:22:40;150473.50;;;6.68;100.00
44926;BME280;30662;51.210;7.656;2023-04-01T02:25:11;150469.69;;;6.66;100.00
44926;BME280;30662;51.210;7.656;2023-04-01T02:27:38;150444.47;;;6.56;100.00
44926;BME280;30662;51.210;7.656;2023-04-01T02:30:06;150429.31;;;6.50;100.00
44926;BME280;30662;51.210;7.656;2023-04-01T02:32:33;150434.38;;;6.52;100.00
44926;BME280;30662;51.210;7.656;2023-04-01T02:35:01;150411.63;;;6.43;100.00
44926;BME280;30662;51.210;7.656;2023-04-01T02:37:31;150425.53;;;6.48;100.00
44926;BME280;30662;51.210;7.656;2023-04-01T02:40:04;150426.78;;;6.49;100.00
44926;BME280;30662;51.210;7.656;2023-04-01T02:42:32;150415.41;;;6.44;100.00
44926;BME280;30662;51.210;7.656;2023-04-01T02:44:58;150399.03;;;6.38;100.00
44926;BME280;30662;51.210;7.656;2023-04-01T02:47:24;150411.63;;;6.43;100.00
44926;BME280;30662;51.210;7.656;2023-04-01T02:49:49;150409.13;;;6.42;100.00
44926;BME280;30662;51.210;7.656;2023-04-01T02:52:15;150448.22;;;6.57;100.00
44926;BME280;30662;51.210;7.656;2023-04-01T02:54:41;150425.53;;;6.48;100.00
44926;BME280;30662;51.210;7.656;2023-04-01T02:57:07;150421.75;;;6.47;100.00
44926;BME280;30662;51.210;7.656;2023-04-01T02:59:33;150420.50;;;6.46;100.00
44926;BME280;30662;51.210;7.656;2023-04-01T03:01:59;150424.25;;;6.48;100.00
44926;BME280;30662;51.210;7.656;2023-04-01T03:04:25;150404.06;;;6.40;100.00
44926;BME280;30662;51.210;7.656;2023-04-01T03:06:51;150431.81;;;6.51;100.00
44926;BME280;30662;51.210;7.656;2023-04-01T03:09:17;150423.00;;;6.47;100.00
44926;BME280;30662;51.210;7.656;2023-04-01T03:11:43;150405.34;;;6.40;100.00
44926;BME280;30662;51.210;7.656;2023-04-01T03:14:09;150406.59;;;6.41;100.00
44926;BME280;30662;51.210;7.656;2023-04-01T03:16:35;150424.25;;;6.48;100.00
44926;BME280;30662;51.210;7.656;2023-04-01T03:19:00;150433.06;;;6.51;100.00
44926;BME280;30662;51.210;7.656;2023-04-01T03:21:27;150410.38;;;6.42;100.00
44926;BME280;30662;51.210;7.656;2023-04-01T03:23:53;150390.19;;;6.34;100.00
44926;BME280;30662;51.210;7.656;2023-04-01T03:26:19;150396.47;;;6.36;100.00
44926;BME280;30662;51.210;7.656;2023-04-01T03:28:45;150396.47;;;6.36;100.00
44926;BME280;30662;51.210;7.656;2023-04-01T03:31:11;150407.84;;;6.41;100.00
44926;BME280;30662;51.210;7.656;2023-04-01T03:33:37;150401.56;;;6.39;100.00
44926;BME280;30662;51.210;7.656;2023-04-01T03:36:03;150416.72;;;6.45;100.00
44926;BME280;30662;51.210;7.656;2023-04-01T03:38:35;150414.16;;;6.44;100.00
44926;BME280;30662;51.210;7.656;2023-04-01T03:41:01;150417.97;;;6.45;100.00
44926;BME280;30662;51.210;7.656;2023-04-01T03:43:27;150383.91;;;6.31;100.00
44926;BME280;30662;51.210;7.656;2023-04-01T03:45:53;150391.44;;;6.34;100.00
44926;BME280;30662;51.210;7.656;2023-04-01T03:48:20;150382.63;;;6.31;100.00
44926;BME280;30662;51.210;7.656;2023-04-01T03:50:46;150378.81;;;6.29;100.00
44926;BME280;30662;51.210;7.656;2023-04-01T03:53:13;150399.03;;;6.38;100.00
44926;BME280;30662;51.210;7.656;2023-04-01T03:55:39;150363.72;;;6.23;100.00
44926;BME280;30662;51.210;7.656;2023-04-01T03:58:06;150393.97;;;6.35;100.00
44926;BME280;30662;51.210;7.656;2023-04-01T04:00:32;150356.09;;;6.20;100.00
44926;BME280;30662;51.210;7.656;2023-04-01T04:02:58;150376.28;;;6.28;100.00
44926;BME280;30662;51.210;7.656;2023-04-01T04:05:25;150383.91;;;6.31;100.00
44926;BME280;30662;51.210;7.656;2023-04-01T04:07:52;150376.28;;;6.28;100.00
44926;BME280;30662;51.210;7.656;2023-04-01T04:10:19;150364.97;;;6.24;100.00
44926;BME280;30662;51.210;7.656;2023-04-01T04:12:45;150366.22;;;6.24;100.00
44926;BME280;30662;51.210;7.656;2023-04-01T04:15:11;150361.16;;;6.22;100.00
44926;BME280;30662;51.210;7.656;2023-04-01T04:17:37;150349.81;;;6.18;100.00
44926;BME280;30662;51.210;7.656;2023-04-01T04:20:04;150354.84;;;6.20;100.00
44926;BME280;30662;51.210;7.656;2023-04-01T04:22:30;150362.41;;;6.23;100.00
44926;BME280;30662;51.210;7.656;2023-04-01T04:24:56;150346.03;;;6.16;100.00
44926;BME280;30662;51.210;7.656;2023-04-01T04:27:21;150339.69;;;6.14;100.00
44926;BME280;30662;51.210;7.656;2023-04-01T04:29:47;150342.22;;;6.15;100.00
44926;BME280;30662;51.210;7.656;2023-04-01T04:32:13;150368.75;;;6.25;100.00
44926;BME280;30662;51.210;7.656;2023-04-01T04:34:39;150375.03;;;6.28;100.00
44926;BME280;30662;51.210;7.656;2023-04-01T04:37:05;150382.63;;;6.31;100.00
44926;BME280;30662;51.210;7.656;2023-04-01T04:39:31;150364.97;;;6.24;100.00
44926;BME280;30662;51.210;7.656;2023-04-01T04:41:57;150380.06;;;6.30;100.00
44926;BME280;30662;51.210;7.656;2023-04-01T04:44:23;150383.91;;;6.31;100.00
44926;BME280;30662;51.210;7.656;2023-04-01T04:46:49;150385.16;;;6.32;100.00
44926;BME280;30662;51.210;7.656;2023-04-01T04:49:15;150358.63;;;6.21;100.00
44926;BME280;30662;51.210;7.656;2023-04-01T04:51:41;150332.16;;;6.11;100.00
44926;BME280;30662;51.210;7.656;2023-04-01T04:54:07;150344.78;;;6.16;100.00
44926;BME280;30662;51.210;7.656;2023-04-01T04:56:33;150339.69;;;6.14;100.00
44926;BME280;30662;51.210;7.656;2023-04-01T04:58:59;150358.63;;;6.21;100.00
44926;BME280;30662;51.210;7.656;2023-04-01T05:01:25;150347.31;;;6.17;100.00
44926;BME280;30662;51.210;7.656;2023-04-01T05:03:51;150353.59;;;6.19;100.00
44926;BME280;30662;51.210;7.656;2023-04-01T05:06:18;150352.34;;;6.19;100.00
44926;BME280;30662;51.210;7.656;2023-04-01T05:08:45;150357.38;;;6.21;100.00
44926;BME280;30662;51.210;7.656;2023-04-01T05:11:17;150381.38;;;6.30;100.00
44926;BME280;30662;51.210;7.656;2023-04-01T05:13:43;150363.72;;;6.23;100.00
44926;BME280;30662;51.210;7.656;2023-04-01T05:16:16;150359.88;;;6.22;100.00
44926;BME280;30662;51.210;7.656;2023-04-01T05:18:42;150392.69;;;6.35;100.00
44926;BME280;30662;51.210;7.656;2023-04-01T05:21:11;150377.56;;;6.29;100.00
44926;BME280;30662;51.210;7.656;2023-04-01T05:23:39;150364.97;;;6.24;100.00
44926;BME280;30662;51.210;7.656;2023-04-01T05:26:07;150362.41;;;6.23;100.00
44926;BME280;30662;51.210;7.656;2023-04-01T05:28:34;150378.81;;;6.29;100.00
44926;BME280;30662;51.210;7.656;2023-04-01T05:31:00;150375.03;;;6.28;100.00
44926;BME280;30662;51.210;7.656;2023-04-01T05:33:27;150388.94;;;6.33;100.00
44926;BME280;30662;51.210;7.656;2023-04-01T05:35:54;150393.97;;;6.35;100.00
44926;BME280;30662;51.210;7.656;2023-04-01T05:38:20;150387.66;;;6.33;100.00
44926;BME280;30662;51.210;7.656;2023-04-01T05:40:46;150386.41;;;6.32;100.00
44926;BME280;30662;51.210;7.656;2023-04-01T05:43:12;150406.59;;;6.41;100.00
44926;BME280;30662;51.210;7.656;2023-04-01T05:45:38;150387.66;;;6.33;100.00
44926;BME280;30662;51.210;7.656;2023-04-01T05:48:04;150402.81;;;6.39;100.00
44926;BME280;30662;51.210;7.656;2023-04-01T05:50:31;150401.56;;;6.39;100.00
44926;BME280;30662;51.210;7.656;2023-04-01T05:52:57;150387.66;;;6.33;100.00
44926;BME280;30662;51.210;7.656;2023-04-01T05:55:23;150390.19;;;6.34;100.00
44926;BME280;30662;51.210;7.656;2023-04-01T05:57:49;150387.66;;;6.33;100.00
44926;BME280;30662;51.210;7.656;2023-04-01T06:00:16;150388.94;;;6.33;100.00
44926;BME280;30662;51.210;7.656;2023-04-01T06:02:42;150382.63;;;6.31;100.00
44926;BME280;30662;51.210;7.656;2023-04-01T06:05:19;150386.41;;;6.32;100.00
44926;BME280;30662;51.210;7.656;2023-04-01T06:07:45;150383.91;;;6.31;100.00
44926;BME280;30662;51.210;7.656;2023-04-01T06:10:19;150393.97;;;6.35;100.00
44926;BME280;30662;51.210;7.656;2023-04-01T06:20:42;150391.44;;;6.34;100.00
44926;BME280;30662;51.210;7.656;2023-04-01T06:26:05;150450.75;;;6.58;100.00
44926;BME280;30662;51.210;7.656;2023-04-01T06:36:46;150483.56;;;6.72;100.00
44926;BME280;30662;51.210;7.656;2023-04-01T06:44:52;150489.91;;;6.74;100.00
44926;BME280;30662;51.210;7.656;2023-04-01T06:55:48;150523.97;;;6.88;100.00
44926;BME280;30662;51.210;7.656;2023-04-01T06:58:21;150505.03;;;6.80;100.00
44926;BME280;30662;51.210;7.656;2023-04-01T07:00:51;150489.91;;;6.74;100.00
44926;BME280;30662;51.210;7.656;2023-04-01T07:03:23;150483.56;;;6.72;100.00
44926;BME280;30662;51.210;7.656;2023-04-01T07:05:52;150517.66;;;6.85;100.00
44926;BME280;30662;51.210;7.656;2023-04-01T07:08:25;150516.41;;;6.85;100.00
44926;BME280;30662;51.210;7.656;2023-04-01T07:11:01;150511.38;;;6.83;100.00
44926;BME280;30662;51.210;7.656;2023-04-01T07:13:54;150516.41;;;6.85;100.00
44926;BME280;30662;51.210;7.656;2023-04-01T07:16:29;150518.91;;;6.86;100.00
44926;BME280;30662;51.210;7.656;2023-04-01T07:19:03;150526.53;;;6.89;100.00
44926;BME280;30662;51.210;7.656;2023-04-01T07:21:37;150530.31;;;6.90;100.00
44926;BME280;30662;51.210;7.656;2023-04-01T07:24:12;150537.84;;;6.94;100.00
44926;BME280;30662;51.210;7.656;2023-04-01T07:26:41;150522.69;;;6.87;100.00
44926;BME280;30662;51.210;7.656;2023-04-01T07:29:12;150550.50;;;6.99;100.00
44926;BME280;30662;51.210;7.656;2023-04-01T07:32:07;150563.13;;;7.04;100.00
44926;BME280;30662;51.210;7.656;2023-04-01T07:35:41;150561.88;;;7.03;100.00
44926;BME280;30662;51.210;7.656;2023-04-01T07:37:52;150565.66;;;7.05;100.00
44926;BME280;30662;51.210;7.656;2023-04-01T07:49:24;150561.88;;;7.03;100.00
44926;BME280;30662;51.210;7.656;2023-04-01T07:52:03;150578.28;;;7.10;100.00
44926;BME280;30662;51.210;7.656;2023-04-01T07:54:40;150578.28;;;7.10;100.00
44926;BME280;30662;51.210;7.656;2023-04-01T07:57:13;150604.78;;;7.21;100.00
44926;BME280;30662;51.210;7.656;2023-04-01T08:00:02;150618.69;;;7.26;100.00
44926;BME280;30662;51.210;7.656;2023-04-01T08:16:59;150601.00;;;7.19;100.00
44926;BME280;30662;51.210;7.656;2023-04-01T08:22:19;150606.06;;;7.21;100.00
44926;BME280;30662;51.210;7.656;2023-04-01T08:24:47;150594.66;;;7.16;100.00
44926;BME280;30662;51.210;7.656;2023-04-01T08:27:30;150590.88;;;7.15;100.00
44926;BME280;30662;51.210;7.656;2023-04-01T08:30:03;150625.00;;;7.29;100.00
44926;BME280;30662;51.210;7.656;2023-04-01T08:32:40;150626.25;;;7.29;100.00
44926;BME280;30662;51.210;7.656;2023-04-01T08:37:41;150654.06;;;7.40;100.00
44926;BME280;30662;51.210;7.656;2023-04-01T08:40:33;150693.19;;;7.56;100.00
44926;BME280;30662;51.210;7.656;2023-04-01T08:43:10;150691.94;;;7.56;100.00
44926;BME280;30662;51.210;7.656;2023-04-01T08:52:03;150654.06;;;7.40;100.00
44926;BME280;30662;51.210;7.656;2023-04-01T09:00:08;150646.44;;;7.37;100.00
44926;BME280;30662;51.210;7.656;2023-04-01T09:08:25;150678.03;;;7.50;100.00
44926;BME280;30662;51.210;7.656;2023-04-01T09:19:22;150636.38;;;7.33;100.00
44926;BME280;30662;51.210;7.656;2023-04-01T09:24:41;150651.53;;;7.39;100.00
44926;BME280;30662;51.210;7.656;2023-04-01T09:30:07;150675.53;;;7.49;100.00
44926;BME280;30662;51.210;7.656;2023-04-01T09:35:46;150673.00;;;7.48;100.00
44926;BME280;30662;51.210;7.656;2023-04-01T09:41:30;150702.03;;;7.60;100.00
44926;BME280;30662;51.210;7.656;2023-04-01T09:44:22;150695.72;;;7.57;100.00
44926;BME280;30662;51.210;7.656;2023-04-01T09:46:55;150712.16;;;7.64;100.00
44926;BME280;30662;51.210;7.656;2023-04-01T10:02:46;150664.13;;;7.44;100.00
44926;BME280;30662;51.210;7.656;2023-04-01T10:08:24;150689.41;;;7.55;100.00
44926;BME280;30662;51.210;7.656;2023-04-01T10:19:11;150714.66;;;7.65;100.00
44926;BME280;30662;51.210;7.656;2023-04-01T10:58:43;150737.38;;;7.74;100.00
44926;BME280;30662;51.210;7.656;2023-04-01T11:26:49;150662.88;;;7.44;100.00
44926;BME280;30662;51.210;7.656;2023-04-01T11:31:58;150678.03;;;7.50;100.00
44926;BME280;30662;51.210;7.656;2023-04-01T11:48:36;150656.56;;;7.41;100.00
44926;BME280;30662;51.210;7.656;2023-04-01T11:54:32;150661.59;;;7.43;100.00
44926;BME280;30662;51.210;7.656;2023-04-01T11:57:21;150691.94;;;7.56;100.00
44926;BME280;30662;51.210;7.656;2023-04-01T12:00:17;150696.97;;;7.58;100.00
44926;BME280;30662;51.210;7.656;2023-04-01T12:06:00;150714.66;;;7.65;100.00
44926;BME280;30662;51.210;7.656;2023-04-01T12:08:37;150674.25;;;7.49;100.00
44926;BME280;30662;51.210;7.656;2023-04-01T12:16:59;150761.44;;;7.84;100.00
44926;BME280;30662;51.210;7.656;2023-04-01T12:24:55;150760.16;;;7.83;100.00
44926;BME280;30662;51.210;7.656;2023-04-01T12:27:57;150743.75;;;7.77;100.00
44926;BME280;30662;51.210;7.656;2023-04-01T12:30:35;150774.03;;;7.89;100.00
44926;BME280;30662;51.210;7.656;2023-04-01T12:48:39;150776.59;;;7.90;100.00
44926;BME280;30662;51.210;7.656;2023-04-01T12:51:41;150738.66;;;7.74;100.00
44926;BME280;30662;51.210;7.656;2023-04-01T13:03:27;150748.78;;;7.79;100.00
44926;BME280;30662;51.210;7.656;2023-04-01T13:06:20;150733.59;;;7.72;100.00
44926;BME280;30662;51.210;7.656;2023-04-01T13:14:28;150688.16;;;7.54;100.00
44926;BME280;30662;51.210;7.656;2023-04-01T13:25:49;150718.44;;;7.66;100.00
44926;BME280;30662;51.210;7.656;2023-04-01T13:31:28;150702.03;;;7.60;100.00
44926;BME280;30662;51.210;7.656;2023-04-01T13:34:19;150666.66;;;7.45;100.00
44926;BME280;30662;51.210;7.656;2023-04-01T13:42:14;150681.81;;;7.52;100.00
44926;BME280;30662;51.210;7.656;2023-04-01T13:44:48;150678.03;;;7.50;100.00
44926;BME280;30662;51.210;7.656;2023-04-01T13:47:51;150720.97;;;7.67;100.00
44926;BME280;30662;51.210;7.656;2023-04-01T13:53:45;150731.09;;;7.71;100.00
44926;BME280;30662;51.210;7.656;2023-04-01T13:59:42;150779.13;;;7.91;100.00
44926;BME280;30662;51.210;7.656;2023-04-01T14:08:20;150775.28;;;7.89;100.00
44926;BME280;30662;51.210;7.656;2023-04-01T14:13:50;150738.66;;;7.74;100.00
44926;BME280;30662;51.210;7.656;2023-04-01T14:22:20;150746.25;;;7.78;100.00
44926;BME280;30662;51.210;7.656;2023-04-01T14:30:51;150800.59;;;7.99;100.00
44926;BME280;30662;51.210;7.656;2023-04-01T14:42:14;150774.03;;;7.89;100.00
44926;BME280;30662;51.210;7.656;2023-04-01T14:45:17;150805.63;;;8.01;100.00
44926;BME280;30662;51.210;7.656;2023-04-01T14:47:54;150780.38;;;7.91;100.00
44926;BME280;30662;51.210;7.656;2023-04-01T14:50:29;150785.41;;;7.93;100.00
44926;BME280;30662;51.210;7.656;2023-04-01T14:58:12;150731.09;;;7.71;100.00
44926;BME280;30662;51.210;7.656;2023-04-01T15:06:42;150782.91;;;7.92;100.00
44926;BME280;30662;51.210;7.656;2023-04-01T15:17:32;150753.81;;;7.81;100.00
44926;BME280;30662;51.210;7.656;2023-04-01T15:32:04;150757.66;;;7.82;100.00
44926;BME280;30662;51.210;7.656;2023-04-01T15:34:47;150753.81;;;7.81;100.00
44926;BME280;30662;51.210;7.656;2023-04-01T15:42:57;150747.50;;;7.78;100.00
44926;BME280;30662;51.210;7.656;2023-04-01T15:48:17;150727.31;;;7.70;100.00
44926;BME280;30662;51.210;7.656;2023-04-01T15:54:12;150713.41;;;7.64;100.00
44926;BME280;30662;51.210;7.656;2023-04-01T15:57:11;150737.38;;;7.74;100.00
44926;BME280;30662;51.210;7.656;2023-04-01T16:15:59;150712.16;;;7.64;100.00
44926;BME280;30662;51.210;7.656;2023-04-01T16:21:52;150670.47;;;7.47;100.00
44926;BME280;30662;51.210;7.656;2023-04-01T16:26:50;150685.59;;;7.53;100.00
44926;BME280;30662;51.210;7.656;2023-04-01T16:29:36;150669.22;;;7.46;100.00
44926;BME280;30662;51.210;7.656;2023-04-01T16:35:23;150681.81;;;7.52;100.00
44926;BME280;30662;51.210;7.656;2023-04-01T16:37:59;150683.06;;;7.52;100.00
44926;BME280;30662;51.210;7.656;2023-04-01T16:48:28;150680.56;;;7.51;100.00
44926;BME280;30662;51.210;7.656;2023-04-01T16:51:03;150655.31;;;7.41;100.00
44926;BME280;30662;51.210;7.656;2023-04-01T16:53:43;150678.03;;;7.50;100.00
44926;BME280;30662;51.210;7.656;2023-04-01T16:56:24;150654.06;;;7.40;100.00
44926;BME280;30662;51.210;7.656;2023-04-01T16:59:07;150645.19;;;7.37;100.00
44926;BME280;30662;51.210;7.656;2023-04-01T17:04:48;150713.41;;;7.64;100.00
44926;BME280;30662;51.210;7.656;2023-04-01T17:07:38;150722.28;;;7.68;100.00
44926;BME280;30662;51.210;7.656;2023-04-01T17:10:25;150709.63;;;7.63;100.00
44926;BME280;30662;51.210;7.656;2023-04-01T17:13:06;150702.03;;;7.60;100.00
44926;BME280;30662;51.210;7.656;2023-04-01T17:15:46;150676.78;;;7.50;100.00
44926;BME280;30662;51.210;7.656;2023-04-01T17:18:37;150704.59;;;7.61;100.00
44926;BME280;30662;51.210;7.656;2023-04-01T17:21:13;150657.84;;;7.42;100.00
44926;BME280;30662;51.210;7.656;2023-04-01T17:23:51;150667.97;;;7.46;100.00
44926;BME280;30662;51.210;7.656;2023-04-01T17:26:26;150648.97;;;7.38;100.00
44926;BME280;30662;51.210;7.656;2023-04-01T17:29:29;150678.03;;;7.50;100.00
44926;BME280;30662;51.210;7.656;2023-04-01T17:33:07;150646.44;;;7.37;100.00
44926;BME280;30662;51.210;7.656;2023-04-01T17:35:15;150648.97;;;7.38;100.00
44926;BME280;30662;51.210;7.656;2023-04-01T17:45:54;150662.88;;;7.44;100.00
44926;BME280;30662;51.210;7.656;2023-04-01T17:48:45;150654.06;;;7.40;100.00
44926;BME280;30662;51.210;7.656;2023-04-01T17:51:37;150685.59;;;7.53;100.00
44926;BME280;30662;51.210;7.656;2023-04-01T18:00:03;150590.88;;;7.15;100.00
44926;BME280;30662;51.210;7.656;2023-04-01T18:02:46;150597.22;;;7.17;100.00
44926;BME280;30662;51.210;7.656;2023-04-01T18:06:17;150635.13;;;7.33;100.00
44926;BME280;30662;51.210;7.656;2023-04-01T18:08:31;150637.63;;;7.34;100.00
44926;BME280;30662;51.210;7.656;2023-04-01T18:13:58;150643.94;;;7.36;100.00
44926;BME280;30662;51.210;7.656;2023-04-01T18:16:57;150651.53;;;7.39;100.00
44926;BME280;30662;51.210;7.656;2023-04-01T18:22:34;150659.09;;;7.42;100.00
44926;BME280;30662;51.210;7.656;2023-04-01T18:27:40;150657.84;;;7.42;100.00
44926;BME280;30662;51.210;7.656;2023-04-01T18:30:13;150659.09;;;7.42;100.00
44926;BME280;30662;51.210;7.656;2023-04-01T18:32:53;150680.56;;;7.51;100.00
44926;BME280;30662;51.210;7.656;2023-04-01T18:35:47;150645.19;;;7.37;100.00
44926;BME280;30662;51.210;7.656;2023-04-01T18:38:27;150645.19;;;7.37;100.00
44926;BME280;30662;51.210;7.656;2023-04-01T18:43:34;150625.00;;;7.29;100.00
44926;BME280;30662;51.210;7.656;2023-04-01T18:46:12;150619.94;;;7.27;100.00
44926;BME280;30662;51.210;7.656;2023-04-01T18:48:55;150587.13;;;7.13;100.00
44926;BME280;30662;51.210;7.656;2023-04-01T18:51:36;150597.22;;;7.17;100.00
44926;BME280;30662;51.210;7.656;2023-04-01T18:54:29;150618.69;;;7.26;100.00
44926;BME280;30662;51.210;7.656;2023-04-01T18:57:15;150611.09;;;7.23;100.00
44926;BME280;30662;51.210;7.656;2023-04-01T18:59:49;150598.50;;;7.18;100.00
44926;BME280;30662;51.210;7.656;2023-04-01T19:02:27;150590.88;;;7.15;100.00
44926;BME280;30662;51.210;7.656;2023-04-01T19:10:37;150566.91;;;7.05;100.00
44926;BME280;30662;51.210;7.656;2023-04-01T19:13:30;150588.38;;;7.14;100.00
44926;BME280;30662;51.210;7.656;2023-04-01T19:21:32;150650.28;;;7.39;100.00
44926;BME280;30662;51.210;7.656;2023-04-01T19:26:56;150616.16;;;7.25;100.00
44926;BME280;30662;51.210;7.656;2023-04-01T19:37:51;150606.06;;;7.21;100.00
44926;BME280;30662;51.210;7.656;2023-04-01T19:46:19;150635.13;;;7.33;100.00
44926;BME280;30662;51.210;7.656;2023-04-01T20:00:46;150671.75;;;7.47;100.00
44926;BME280;30662;51.210;7.656;2023-04-01T20:03:04;150650.28;;;7.39;100.00
44926;BME280;30662;51.210;7.656;2023-04-01T20:11:46;150669.22;;;7.46;100.00
44926;BME280;30662;51.210;7.656;2023-04-01T20:17:25;150647.72;;;7.38;100.00
44926;BME280;30662;51.210;7.656;2023-04-01T20:19:55;150659.09;;;7.42;100.00
44926;BME280;30662;51.210;7.656;2023-04-01T20:25:26;150679.28;;;7.51;100.00
44926;BME280;30662;51.210;7.656;2023-04-01T20:28:01;150662.88;;;7.44;100.00
44926;BME280;30662;51.210;7.656;2023-04-01T20:33:48;150642.66;;;7.36;100.00
44926;BME280;30662;51.210;7.656;2023-04-01T20:44:55;150662.88;;;7.44;100.00
44926;BME280;30662;51.210;7.656;2023-04-01T20:53:20;150648.97;;;7.38;100.00
44926;BME280;30662;51.210;7.656;2023-04-01T21:17:55;150648.97;;;7.38;100.00
44926;BME280;30662;51.210;7.656;2023-04-01T21:31:28;150633.84;;;7.32;100.00
44926;BME280;30662;51.210;7.656;2023-04-01T21:37:27;150661.59;;;7.43;100.00
44926;BME280;30662;51.210;7.656;2023-04-01T21:50:46;150602.28;;;7.19;100.00
44926;BME280;30662;51.210;7.656;2023-04-01T21:56:29;150633.84;;;7.32;100.00
44926;BME280;30662;51.210;7.656;2023-04-01T22:07:02;150594.66;;;7.16;100.00
44926;BME280;30662;51.210;7.656;2023-04-01T22:09:38;150577.00;;;7.09;100.00
44926;BME280;30662;51.210;7.656;2023-04-01T22:12:17;150606.06;;;7.21;100.00
44926;BME280;30662;51.210;7.656;2023-04-01T22:15:15;150611.09;;;7.23;100.00
44926;BME280;30662;51.210;7.656;2023-04-01T22:17:57;150594.66;;;7.16;100.00
44926;BME280;30662;51.210;7.656;2023-04-01T22:20:33;150590.88;;;7.15;100.00
44926;BME280;30662;51.210;7.656;2023-04-01T22:23:24;150641.41;;;7.35;100.00
44926;BME280;30662;51.210;7.656;2023-04-01T22:26:02;150627.50;;;7.30;100.00
44926;BME280;30662;51.210;7.656;2023-04-01T22:28:38;150590.88;;;7.15;100.00
44926;BME280;30662;51.210;7.656;2023-04-01T22:31:09;150568.19;;;7.06;100.00
44926;BME280;30662;51.210;7.656;2023-04-01T22:33:38;150593.41;;;7.16;100.00
44926;BME280;30662;51.210;7.656;2023-04-01T22:41:53;150626.25;;;7.29;100.00